sensor_id;sensor_type;location;lat;lon;timestamp;pressure;altitude;pressure_sealevel;temperature;humidity
56340;BME280;42243;42.644;23.366;2023-05-23T00:01:41;94406.75;;;13.63;81.78
56340;BME280;42243;42.644;23.366;2023-05-23T00:04:07;94427.66;;;13.81;81.91
56340;BME280;42243;42.644;23.366;2023-05-23T00:06:33;94304.91;;;13.25;80.76
56340;BME280;42243;42.644;23.366;2023-05-23T00:09:00;94368.13;;;13.58;81.00
56340;BME280;42243;42.644;23.366;2023-05-23T00:11:26;94351.78;;;13.45;80.60
56340;BME280;42243;42.644;23.366;2023-05-23T00:13:53;94346.19;;;13.41;80.00
56340;BME280;42243;42.644;23.366;2023-05-23T00:16:19;94405.06;;;13.69;80.15
56340;BME280;42243;42.644;23.366;2023-05-23T00:18:46;94341.09;;;13.28;80.29
56340;BME280;42243;42.644;23.366;2023-05-23T00:21:11;94390.31;;;13.56;79.89
56340;BME280;42243;42.644;23.366;2023-05-23T00:23:40;94396.25;;;13.33;81.52
56340;BME280;42243;42.644;23.366;2023-05-23T00:26:09;94365.84;;;12.76;83.32
56340;BME280;42243;42.644;23.366;2023-05-23T00:28:36;94420.06;;;13.25;82.83
56340;BME280;42243;42.644;23.366;2023-05-23T00:31:02;94317.28;;;12.80;82.21
56340;BME280;42243;42.644;23.366;2023-05-23T00:33:28;94349.56;;;12.93;82.21
56340;BME280;42243;42.644;23.366;2023-05-23T00:35:54;94335.47;;;12.94;82.20
56340;BME280;42243;42.644;23.366;2023-05-23T00:38:19;94300.59;;;12.81;81.18
56340;BME280;42243;42.644;23.366;2023-05-23T00:40:45;94256.72;;;12.47;81.22
56340;BME280;42243;42.644;23.366;2023-05-23T00:43:10;94407.69;;;13.50;81.10
56340;BME280;42243;42.644;23.366;2023-05-23T00:45:36;94388.03;;;13.29;81.41
56340;BME280;42243;42.644;23.366;2023-05-23T00:48:02;94408.66;;;13.37;81.65
56340;BME280;42243;42.644;23.366;2023-05-23T00:50:28;94288.38;;;12.57;81.34
56340;BME280;42243;42.644;23.366;2023-05-23T00:52:54;94373.97;;;13.05;80.90
56340;BME280;42243;42.644;23.366;2023-05-23T00:55:22;94412.75;;;13.33;80.62
56340;BME280;42243;42.644;23.366;2023-05-23T00:57:48;94326.47;;;12.71;80.66
56340;BME280;42243;42.644;23.366;2023-05-23T01:00:15;94269.19;;;12.45;80.32
56340;BME280;42243;42.644;23.366;2023-05-23T01:02:44;94412.06;;;13.38;80.02
56340;BME280;42243;42.644;23.366;2023-05-23T01:05:11;94415.56;;;13.32;80.20
56340;BME280;42243;42.644;23.366;2023-05-23T01:07:39;94374.25;;;12.60;82.07
56340;BME280;42243;42.644;23.366;2023-05-23T01:10:05;94305.53;;;11.84;84.49
56340;BME280;42243;42.644;23.366;2023-05-23T01:12:55;94418.72;;;12.35;85.92
56340;BME280;42243;42.644;23.366;2023-05-23T01:15:35;94419.28;;;12.62;85.63
56340;BME280;42243;42.644;23.366;2023-05-23T01:18:09;94313.41;;;12.28;83.58
56340;BME280;42243;42.644;23.366;2023-05-23T01:20:40;94413.09;;;13.00;83.02
56340;BME280;42243;42.644;23.366;2023-05-23T01:28:36;94419.63;;;13.09;81.82
56340;BME280;42243;42.644;23.366;2023-05-23T01:31:07;94325.53;;;12.40;82.09
56340;BME280;42243;42.644;23.366;2023-05-23T01:33:34;94354.03;;;12.49;82.99
56340;BME280;42243;42.644;23.366;2023-05-23T01:36:01;94301.41;;;12.20;82.74
56340;BME280;42243;42.644;23.366;2023-05-23T01:38:29;94423.75;;;12.98;82.36
56340;BME280;42243;42.644;23.366;2023-05-23T01:40:55;94377.09;;;12.77;82.24
56340;BME280;42243;42.644;23.366;2023-05-23T01:43:21;94322.94;;;12.40;82.80
56340;BME280;42243;42.644;23.366;2023-05-23T01:45:47;94360.22;;;12.73;82.77
56340;BME280;42243;42.644;23.366;2023-05-23T01:48:14;94306.63;;;12.45;82.49
56340;BME280;42243;42.644;23.366;2023-05-23T01:50:43;94313.88;;;12.43;82.62
56340;BME280;42243;42.644;23.366;2023-05-23T01:53:11;94401.38;;;13.02;82.24
56340;BME280;42243;42.644;23.366;2023-05-23T01:55:37;94407.00;;;13.06;81.54
56340;BME280;42243;42.644;23.366;2023-05-23T01:58:03;94341.97;;;12.48;82.28
56340;BME280;42243;42.644;23.366;2023-05-23T02:00:30;94354.19;;;12.72;82.02
56340;BME280;42243;42.644;23.366;2023-05-23T02:02:55;94326.31;;;12.66;81.54
56340;BME280;42243;42.644;23.366;2023-05-23T02:05:21;94315.97;;;12.53;81.48
56340;BME280;42243;42.644;23.366;2023-05-23T02:07:47;94407.13;;;12.93;82.09
56340;BME280;42243;42.644;23.366;2023-05-23T02:10:12;94333.09;;;12.49;82.48
56340;BME280;42243;42.644;23.366;2023-05-23T02:12:37;94329.41;;;12.38;82.72
56340;BME280;42243;42.644;23.366;2023-05-23T02:15:03;94287.91;;;12.05;82.63
56340;BME280;42243;42.644;23.366;2023-05-23T02:17:29;94331.28;;;12.31;82.59
56340;BME280;42243;42.644;23.366;2023-05-23T02:19:54;94281.06;;;12.03;82.83
56340;BME280;42243;42.644;23.366;2023-05-23T02:22:24;94403.63;;;12.80;82.71
56340;BME280;42243;42.644;23.366;2023-05-23T02:24:50;94313.91;;;12.18;82.99
56340;BME280;42243;42.644;23.366;2023-05-23T02:27:16;94345.25;;;12.18;83.71
56340;BME280;42243;42.644;23.366;2023-05-23T02:29:41;94380.16;;;12.49;83.59
56340;BME280;42243;42.644;23.366;2023-05-23T02:32:07;94340.47;;;11.83;84.49
56340;BME280;42243;42.644;23.366;2023-05-23T02:34:32;94405.47;;;12.05;85.59
56340;BME280;42243;42.644;23.366;2023-05-23T02:36:57;94348.25;;;11.96;84.37
56340;BME280;42243;42.644;23.366;2023-05-23T02:39:23;94398.44;;;12.55;83.58
56340;BME280;42243;42.644;23.366;2023-05-23T02:41:48;94269.97;;;11.83;82.75
56340;BME280;42243;42.644;23.366;2023-05-23T02:44:13;94367.34;;;12.47;82.72
56340;BME280;42243;42.644;23.366;2023-05-23T02:46:39;94295.78;;;11.98;81.95
56340;BME280;42243;42.644;23.366;2023-05-23T02:49:04;94275.19;;;11.83;81.90
56340;BME280;42243;42.644;23.366;2023-05-23T02:51:30;94317.75;;;11.90;82.82
56340;BME280;42243;42.644;23.366;2023-05-23T02:53:56;94301.75;;;11.73;82.93
56340;BME280;42243;42.644;23.366;2023-05-23T02:56:21;94367.69;;;11.69;84.57
56340;BME280;42243;42.644;23.366;2023-05-23T02:58:47;94364.22;;;11.75;84.33
56340;BME280;42243;42.644;23.366;2023-05-23T03:01:13;94268.25;;;11.13;84.26
56340;BME280;42243;42.644;23.366;2023-05-23T03:03:38;94308.94;;;11.53;83.85
56340;BME280;42243;42.644;23.366;2023-05-23T03:06:06;94344.34;;;11.74;83.56
56340;BME280;42243;42.644;23.366;2023-05-23T03:08:31;94326.81;;;11.81;82.90
56340;BME280;42243;42.644;23.366;2023-05-23T03:10:57;94335.97;;;11.97;82.48
56340;BME280;42243;42.644;23.366;2023-05-23T03:13:22;94306.69;;;11.88;81.77
56340;BME280;42243;42.644;23.366;2023-05-23T03:15:48;94295.53;;;11.74;81.48
56340;BME280;42243;42.644;23.366;2023-05-23T03:18:13;94366.34;;;12.23;81.44
56340;BME280;42243;42.644;23.366;2023-05-23T03:20:39;94397.16;;;12.39;81.15
56340;BME280;42243;42.644;23.366;2023-05-23T03:23:04;94362.53;;;12.19;80.59
56340;BME280;42243;42.644;23.366;2023-05-23T03:25:30;94211.97;;;11.24;80.89
56340;BME280;42243;42.644;23.366;2023-05-23T03:27:55;94318.75;;;11.89;80.78
56340;BME280;42243;42.644;23.366;2023-05-23T03:30:20;94400.03;;;12.31;81.22
56340;BME280;42243;42.644;23.366;2023-05-23T03:32:46;94403.09;;;12.47;81.22
56340;BME280;42243;42.644;23.366;2023-05-23T03:35:12;94347.53;;;12.08;80.98
56340;BME280;42243;42.644;23.366;2023-05-23T03:37:37;94415.56;;;12.51;80.89
56340;BME280;42243;42.644;23.366;2023-05-23T03:40:03;94412.78;;;12.46;81.46
56340;BME280;42243;42.644;23.366;2023-05-23T03:42:29;94413.88;;;12.57;80.68
56340;BME280;42243;42.644;23.366;2023-05-23T03:44:55;94326.78;;;11.94;80.96
56340;BME280;42243;42.644;23.366;2023-05-23T03:47:21;94427.13;;;12.62;80.57
56340;BME280;42243;42.644;23.366;2023-05-23T03:49:48;94426.84;;;12.70;80.45
56340;BME280;42243;42.644;23.366;2023-05-23T03:52:13;94425.63;;;12.91;78.99
56340;BME280;42243;42.644;23.366;2023-05-23T03:54:39;94220.44;;;11.70;78.07
56340;BME280;42243;42.644;23.366;2023-05-23T03:57:04;94358.97;;;12.57;77.61
56340;BME280;42243;42.644;23.366;2023-05-23T03:59:29;94266.47;;;11.96;77.15
56340;BME280;42243;42.644;23.366;2023-05-23T04:01:55;94402.03;;;12.79;77.45
56340;BME280;42243;42.644;23.366;2023-05-23T04:04:23;94302.84;;;12.16;77.86
56340;BME280;42243;42.644;23.366;2023-05-23T04:06:49;94245.13;;;11.74;78.08
56340;BME280;42243;42.644;23.366;2023-05-23T04:09:15;94430.81;;;12.98;78.24
56340;BME280;42243;42.644;23.366;2023-05-23T04:11:41;94397.50;;;12.87;78.47
56340;BME280;42243;42.644;23.366;2023-05-23T04:14:06;94365.84;;;12.95;78.03
56340;BME280;42243;42.644;23.366;2023-05-23T04:16:32;94386.63;;;13.27;78.27
56340;BME280;42243;42.644;23.366;2023-05-23T04:19:00;94345.75;;;13.26;77.39
56340;BME280;42243;42.644;23.366;2023-05-23T04:21:26;94398.03;;;13.51;77.87
56340;BME280;42243;42.644;23.366;2023-05-23T04:23:52;94358.41;;;13.29;78.14
56340;BME280;42243;42.644;23.366;2023-05-23T04:26:17;94396.34;;;13.56;78.34
56340;BME280;42243;42.644;23.366;2023-05-23T04:28:42;94326.84;;;13.23;77.66
56340;BME280;42243;42.644;23.366;2023-05-23T04:31:10;94431.34;;;13.92;78.26
56340;BME280;42243;42.644;23.366;2023-05-23T04:33:36;94394.06;;;13.90;77.99
56340;BME280;42243;42.644;23.366;2023-05-23T04:36:02;94439.88;;;14.41;77.86
56340;BME280;42243;42.644;23.366;2023-05-23T04:38:28;94426.78;;;14.41;76.88
56340;BME280;42243;42.644;23.366;2023-05-23T04:40:53;94290.19;;;13.23;75.24
56340;BME280;42243;42.644;23.366;2023-05-23T04:43:19;94280.88;;;13.58;73.53
56340;BME280;42243;42.644;23.366;2023-05-23T04:45:46;94425.59;;;14.56;72.72
56340;BME280;42243;42.644;23.366;2023-05-23T04:48:14;94413.41;;;14.19;73.40
56340;BME280;42243;42.644;23.366;2023-05-23T04:50:41;94336.28;;;12.76;75.92
56340;BME280;42243;42.644;23.366;2023-05-23T04:53:07;94393.69;;;13.75;75.66
56340;BME280;42243;42.644;23.366;2023-05-23T04:55:32;94417.91;;;14.54;74.22
56340;BME280;42243;42.644;23.366;2023-05-23T04:57:58;94332.63;;;14.52;72.30
56340;BME280;42243;42.644;23.366;2023-05-23T05:00:25;94432.75;;;15.08;72.54
56340;BME280;42243;42.644;23.366;2023-05-23T05:02:51;94395.22;;;15.07;72.54
56340;BME280;42243;42.644;23.366;2023-05-23T05:05:16;94427.88;;;15.63;72.89
56340;BME280;42243;42.644;23.366;2023-05-23T05:07:41;94384.00;;;15.64;71.55
56340;BME280;42243;42.644;23.366;2023-05-23T05:10:09;94449.66;;;16.33;71.24
56340;BME280;42243;42.644;23.366;2023-05-23T05:12:42;94422.22;;;16.29;69.81
56340;BME280;42243;42.644;23.366;2023-05-23T05:15:08;94427.34;;;16.53;69.21
56340;BME280;42243;42.644;23.366;2023-05-23T05:17:33;94453.03;;;16.79;68.23
56340;BME280;42243;42.644;23.366;2023-05-23T05:20:02;94404.31;;;15.97;69.35
56340;BME280;42243;42.644;23.366;2023-05-23T05:22:31;94399.38;;;16.47;68.36
56340;BME280;42243;42.644;23.366;2023-05-23T05:24:56;94399.25;;;16.58;68.21
56340;BME280;42243;42.644;23.366;2023-05-23T05:27:21;94384.19;;;16.71;68.30
56340;BME280;42243;42.644;23.366;2023-05-23T05:29:47;94454.13;;;17.39;67.99
56340;BME280;42243;42.644;23.366;2023-05-23T05:32:12;94455.88;;;17.73;67.12
56340;BME280;42243;42.644;23.366;2023-05-23T05:34:38;94351.97;;;17.19;66.30
56340;BME280;42243;42.644;23.366;2023-05-23T05:37:03;94443.91;;;17.43;66.35
56340;BME280;42243;42.644;23.366;2023-05-23T05:39:29;94447.81;;;17.18;66.74
56340;BME280;42243;42.644;23.366;2023-05-23T05:41:54;94381.72;;;17.64;65.20
56340;BME280;42243;42.644;23.366;2023-05-23T05:44:20;94329.22;;;18.17;63.00
56340;BME280;42243;42.644;23.366;2023-05-23T05:46:46;94443.72;;;19.13;61.89
56340;BME280;42243;42.644;23.366;2023-05-23T05:49:12;94354.31;;;18.19;61.33
56340;BME280;42243;42.644;23.366;2023-05-23T05:51:37;94361.97;;;17.67;63.58
56340;BME280;42243;42.644;23.366;2023-05-23T05:54:03;94367.13;;;17.56;64.89
56340;BME280;42243;42.644;23.366;2023-05-23T05:56:28;94462.06;;;18.33;64.55
56340;BME280;42243;42.644;23.366;2023-05-23T05:58:54;94360.47;;;17.76;63.50
56340;BME280;42243;42.644;23.366;2023-05-23T06:01:19;94456.50;;;18.89;63.34
56340;BME280;42243;42.644;23.366;2023-05-23T06:03:45;94426.31;;;19.75;60.20
56340;BME280;42243;42.644;23.366;2023-05-23T06:06:10;94344.13;;;20.58;57.69
56340;BME280;42243;42.644;23.366;2023-05-23T06:08:36;94380.81;;;23.48;49.79
56340;BME280;42243;42.644;23.366;2023-05-23T06:11:01;94356.38;;;25.21;44.76
56340;BME280;42243;42.644;23.366;2023-05-23T06:13:26;94373.75;;;28.55;37.84
56340;BME280;42243;42.644;23.366;2023-05-23T06:15:52;94411.06;;;31.28;32.62
56340;BME280;42243;42.644;23.366;2023-05-23T06:18:17;94422.09;;;33.78;28.83
56340;BME280;42243;42.644;23.366;2023-05-23T06:20:43;94447.13;;;35.40;27.27
56340;BME280;42243;42.644;23.366;2023-05-23T06:23:08;94449.59;;;36.75;24.93
56340;BME280;42243;42.644;23.366;2023-05-23T06:25:33;94386.91;;;37.73;23.76
56340;BME280;42243;42.644;23.366;2023-05-23T06:27:59;94419.94;;;39.25;22.02
56340;BME280;42243;42.644;23.366;2023-05-23T06:30:25;94312.44;;;39.62;20.29
56340;BME280;42243;42.644;23.366;2023-05-23T06:32:50;94415.81;;;41.09;20.30
56340;BME280;42243;42.644;23.366;2023-05-23T06:35:15;94441.06;;;42.36;18.53
56340;BME280;42243;42.644;23.366;2023-05-23T06:37:42;94372.75;;;42.87;17.91
56340;BME280;42243;42.644;23.366;2023-05-23T06:40:11;94399.06;;;43.66;17.56
56340;BME280;42243;42.644;23.366;2023-05-23T06:42:36;94372.50;;;43.59;16.91
56340;BME280;42243;42.644;23.366;2023-05-23T06:45:02;94425.09;;;44.72;16.22
56340;BME280;42243;42.644;23.366;2023-05-23T06:47:27;94422.56;;;45.37;16.06
56340;BME280;42243;42.644;23.366;2023-05-23T06:49:53;94385.41;;;45.46;15.49
56340;BME280;42243;42.644;23.366;2023-05-23T06:52:18;94379.72;;;45.86;15.12
56340;BME280;42243;42.644;23.366;2023-05-23T06:54:43;94408.50;;;46.60;15.40
56340;BME280;42243;42.644;23.366;2023-05-23T06:57:09;94430.00;;;46.06;15.15
56340;BME280;42243;42.644;23.366;2023-05-23T06:59:34;94419.47;;;47.18;14.43
56340;BME280;42243;42.644;23.366;2023-05-23T07:01:59;94352.44;;;47.05;14.19
56340;BME280;42243;42.644;23.366;2023-05-23T07:04:25;94413.13;;;48.07;13.90
56340;BME280;42243;42.644;23.366;2023-05-23T07:06:52;94413.88;;;48.08;13.72
56340;BME280;42243;42.644;23.366;2023-05-23T07:09:17;94415.50;;;48.31;14.08
56340;BME280;42243;42.644;23.366;2023-05-23T07:11:43;94412.69;;;49.19;13.51
56340;BME280;42243;42.644;23.366;2023-05-23T07:14:08;94391.91;;;47.31;14.50
56340;BME280;42243;42.644;23.366;2023-05-23T07:16:33;94406.38;;;48.08;13.60
56340;BME280;42243;42.644;23.366;2023-05-23T07:19:00;94404.09;;;48.95;13.00
56340;BME280;42243;42.644;23.366;2023-05-23T07:21:26;94400.38;;;49.51;13.46
56340;BME280;42243;42.644;23.366;2023-05-23T07:23:51;94399.75;;;49.97;12.98
56340;BME280;42243;42.644;23.366;2023-05-23T07:26:17;94360.78;;;48.70;13.40
56340;BME280;42243;42.644;23.366;2023-05-23T07:28:42;94305.41;;;39.39;19.79
56340;BME280;42243;42.644;23.366;2023-05-23T07:31:07;94395.19;;;45.96;15.43
56340;BME280;42243;42.644;23.366;2023-05-23T07:33:34;94237.31;;;43.75;16.39
56340;BME280;42243;42.644;23.366;2023-05-23T07:35:59;94382.75;;;43.00;17.71
56340;BME280;42243;42.644;23.366;2023-05-23T07:38:25;94277.31;;;42.16;17.84
56340;BME280;42243;42.644;23.366;2023-05-23T07:40:51;94294.69;;;40.42;19.29
56340;BME280;42243;42.644;23.366;2023-05-23T07:43:16;94373.94;;;36.77;22.27
56340;BME280;42243;42.644;23.366;2023-05-23T07:45:42;94391.41;;;35.19;25.70
56340;BME280;42243;42.644;23.366;2023-05-23T07:48:08;94381.78;;;40.04;20.59
56340;BME280;42243;42.644;23.366;2023-05-23T07:50:33;94281.28;;;36.89;23.09
56340;BME280;42243;42.644;23.366;2023-05-23T07:52:59;94361.56;;;41.60;19.17
56340;BME280;42243;42.644;23.366;2023-05-23T07:55:24;94329.50;;;42.71;17.85
56340;BME280;42243;42.644;23.366;2023-05-23T07:57:49;94373.00;;;41.89;18.66
56340;BME280;42243;42.644;23.366;2023-05-23T08:00:17;94349.56;;;41.88;18.29
56340;BME280;42243;42.644;23.366;2023-05-23T08:02:42;94320.44;;;40.44;19.55
56340;BME280;42243;42.644;23.366;2023-05-23T08:05:08;94376.34;;;39.54;21.44
56340;BME280;42243;42.644;23.366;2023-05-23T08:07:33;94298.53;;;33.63;26.72
56340;BME280;42243;42.644;23.366;2023-05-23T08:09:59;94338.78;;;34.39;26.71
56340;BME280;42243;42.644;23.366;2023-05-23T08:12:24;94371.19;;;30.21;32.83
56340;BME280;42243;42.644;23.366;2023-05-23T08:14:50;94373.50;;;32.33;29.56
56340;BME280;42243;42.644;23.366;2023-05-23T08:17:15;94371.03;;;31.76;31.12
56340;BME280;42243;42.644;23.366;2023-05-23T08:19:40;94384.91;;;30.83;32.44
56340;BME280;42243;42.644;23.366;2023-05-23T08:22:06;94310.69;;;28.96;34.59
56340;BME280;42243;42.644;23.366;2023-05-23T08:24:31;94384.13;;;28.74;36.46
56340;BME280;42243;42.644;23.366;2023-05-23T08:26:58;94375.06;;;25.62;43.35
56340;BME280;42243;42.644;23.366;2023-05-23T08:29:24;94360.47;;;26.55;41.92
56340;BME280;42243;42.644;23.366;2023-05-23T08:31:49;94364.72;;;24.02;47.20
56340;BME280;42243;42.644;23.366;2023-05-23T08:34:15;94343.00;;;25.76;42.91
56340;BME280;42243;42.644;23.366;2023-05-23T08:36:40;94374.00;;;25.49;44.47
56340;BME280;42243;42.644;23.366;2023-05-23T08:39:07;94345.66;;;24.79;45.38
56340;BME280;42243;42.644;23.366;2023-05-23T08:41:33;94248.03;;;22.36;48.34
56340;BME280;42243;42.644;23.366;2023-05-23T08:43:59;94265.00;;;22.40;48.66
56340;BME280;42243;42.644;23.366;2023-05-23T08:46:25;94361.63;;;23.51;48.54
56340;BME280;42243;42.644;23.366;2023-05-23T08:48:52;94345.09;;;22.53;50.59
56340;BME280;42243;42.644;23.366;2023-05-23T08:51:24;94285.00;;;22.57;48.97
56340;BME280;42243;42.644;23.366;2023-05-23T08:53:50;94322.13;;;22.67;48.92
56340;BME280;42243;42.644;23.366;2023-05-23T08:56:18;94307.94;;;22.48;49.80
56340;BME280;42243;42.644;23.366;2023-05-23T08:58:44;94371.06;;;24.06;48.84
56340;BME280;42243;42.644;23.366;2023-05-23T09:01:14;94285.91;;;24.52;47.19
56340;BME280;42243;42.644;23.366;2023-05-23T09:03:42;94272.22;;;24.87;43.89
56340;BME280;42243;42.644;23.366;2023-05-23T09:06:09;94311.63;;;25.45;42.85
56340;BME280;42243;42.644;23.366;2023-05-23T09:08:35;94279.78;;;24.33;43.58
56340;BME280;42243;42.644;23.366;2023-05-23T09:11:02;94354.03;;;24.39;45.69
56340;BME280;42243;42.644;23.366;2023-05-23T09:13:31;94356.53;;;24.83;43.72
56340;BME280;42243;42.644;23.366;2023-05-23T09:16:09;94363.78;;;24.63;44.96
56340;BME280;42243;42.644;23.366;2023-05-23T09:18:42;94343.47;;;22.57;48.85
56340;BME280;42243;42.644;23.366;2023-05-23T09:21:09;94356.84;;;23.72;45.82
56340;BME280;42243;42.644;23.366;2023-05-23T09:23:35;94353.88;;;24.83;40.07
56340;BME280;42243;42.644;23.366;2023-05-23T09:26:05;94354.78;;;25.06;36.86
56340;BME280;42243;42.644;23.366;2023-05-23T09:28:35;94225.81;;;24.60;35.91
56340;BME280;42243;42.644;23.366;2023-05-23T09:31:05;94266.56;;;25.16;37.02
56340;BME280;42243;42.644;23.366;2023-05-23T09:33:53;94354.28;;;25.73;36.04
56340;BME280;42243;42.644;23.366;2023-05-23T09:36:18;94354.31;;;25.59;35.34
56340;BME280;42243;42.644;23.366;2023-05-23T09:38:45;94350.56;;;25.46;35.85
56340;BME280;42243;42.644;23.366;2023-05-23T09:41:12;94358.53;;;25.88;35.63
56340;BME280;42243;42.644;23.366;2023-05-23T09:43:53;94261.63;;;25.37;35.46
56340;BME280;42243;42.644;23.366;2023-05-23T09:46:20;94243.50;;;25.48;35.84
56340;BME280;42243;42.644;23.366;2023-05-23T09:48:49;94341.78;;;26.10;35.12
56340;BME280;42243;42.644;23.366;2023-05-23T09:51:18;94323.50;;;25.53;35.24
56340;BME280;42243;42.644;23.366;2023-05-23T09:53:47;94314.47;;;25.07;35.94
56340;BME280;42243;42.644;23.366;2023-05-23T09:56:15;94254.03;;;25.16;34.90
56340;BME280;42243;42.644;23.366;2023-05-23T09:58:45;94326.88;;;25.81;34.25
56340;BME280;42243;42.644;23.366;2023-05-23T10:01:11;94324.59;;;25.88;34.40
56340;BME280;42243;42.644;23.366;2023-05-23T10:03:51;94255.28;;;25.47;33.84
56340;BME280;42243;42.644;23.366;2023-05-23T10:06:31;94328.66;;;26.00;34.41
56340;BME280;42243;42.644;23.366;2023-05-23T10:09:05;94290.88;;;25.78;34.46
56340;BME280;42243;42.644;23.366;2023-05-23T10:14:00;94268.75;;;25.28;33.73
56340;BME280;42243;42.644;23.366;2023-05-23T10:16:32;94265.69;;;25.21;34.04
56340;BME280;42243;42.644;23.366;2023-05-23T10:19:30;94331.75;;;22.87;37.58
56340;BME280;42243;42.644;23.366;2023-05-23T10:22:00;94312.97;;;24.40;37.23
56340;BME280;42243;42.644;23.366;2023-05-23T10:24:28;94320.56;;;24.33;36.47
56340;BME280;42243;42.644;23.366;2023-05-23T10:26:53;94318.22;;;25.20;36.09
56340;BME280;42243;42.644;23.366;2023-05-23T10:29:22;94235.88;;;24.77;34.87
56340;BME280;42243;42.644;23.366;2023-05-23T10:31:49;94306.41;;;25.26;33.36
56340;BME280;42243;42.644;23.366;2023-05-23T10:34:20;94316.81;;;24.67;35.32
56340;BME280;42243;42.644;23.366;2023-05-23T10:42:03;94290.72;;;22.40;36.41
56340;BME280;42243;42.644;23.366;2023-05-23T10:44:32;94314.44;;;22.90;35.65
56340;BME280;42243;42.644;23.366;2023-05-23T10:46:59;94294.41;;;22.73;36.52
56340;BME280;42243;42.644;23.366;2023-05-23T10:49:50;94289.13;;;23.22;34.57
56340;BME280;42243;42.644;23.366;2023-05-23T10:52:16;94298.38;;;23.86;34.27
56340;BME280;42243;42.644;23.366;2023-05-23T10:54:49;94294.53;;;24.11;34.26
56340;BME280;42243;42.644;23.366;2023-05-23T10:57:20;94174.97;;;23.06;35.09
56340;BME280;42243;42.644;23.366;2023-05-23T10:59:48;94249.34;;;24.06;34.10
56340;BME280;42243;42.644;23.366;2023-05-23T11:02:17;94263.63;;;24.43;33.54
56340;BME280;42243;42.644;23.366;2023-05-23T11:04:43;94286.84;;;24.10;34.38
56340;BME280;42243;42.644;23.366;2023-05-23T11:07:32;94289.72;;;23.94;35.33
56340;BME280;42243;42.644;23.366;2023-05-23T11:10:11;94286.44;;;24.35;34.13
56340;BME280;42243;42.644;23.366;2023-05-23T11:12:42;94260.97;;;24.29;33.46
56340;BME280;42243;42.644;23.366;2023-05-23T11:17:53;94249.28;;;22.68;35.16
56340;BME280;42243;42.644;23.366;2023-05-23T11:20:20;94277.16;;;22.47;35.15
56340;BME280;42243;42.644;23.366;2023-05-23T11:23:13;94284.69;;;22.34;34.92
56340;BME280;42243;42.644;23.366;2023-05-23T11:25:40;94280.75;;;22.56;34.91
56340;BME280;42243;42.644;23.366;2023-05-23T11:28:08;94165.28;;;22.48;32.75
56340;BME280;42243;42.644;23.366;2023-05-23T11:30:34;94212.50;;;22.32;34.46
56340;BME280;42243;42.644;23.366;2023-05-23T11:33:05;94273.69;;;22.70;34.96
56340;BME280;42243;42.644;23.366;2023-05-23T11:35:36;94210.84;;;22.36;35.01
56340;BME280;42243;42.644;23.366;2023-05-23T11:38:03;94267.50;;;23.47;33.96
56340;BME280;42243;42.644;23.366;2023-05-23T11:40:33;94249.66;;;23.48;33.71
56340;BME280;42243;42.644;23.366;2023-05-23T11:43:02;94231.19;;;23.18;33.60
56340;BME280;42243;42.644;23.366;2023-05-23T11:45:29;94012.28;;;22.28;33.25
56340;BME280;42243;42.644;23.366;2023-05-23T11:47:56;94199.66;;;22.39;33.32
56340;BME280;42243;42.644;23.366;2023-05-23T11:50:21;94182.16;;;21.75;34.02
56340;BME280;42243;42.644;23.366;2023-05-23T11:52:49;94232.75;;;22.18;34.46
56340;BME280;42243;42.644;23.366;2023-05-23T11:55:20;94262.78;;;22.48;35.22
56340;BME280;42243;42.644;23.366;2023-05-23T11:57:47;94263.88;;;22.47;34.09
56340;BME280;42243;42.644;23.366;2023-05-23T12:00:13;94197.22;;;22.14;34.48
56340;BME280;42243;42.644;23.366;2023-05-23T12:02:39;94241.97;;;23.27;33.75
56340;BME280;42243;42.644;23.366;2023-05-23T12:05:07;94250.97;;;23.07;33.36
56340;BME280;42243;42.644;23.366;2023-05-23T12:07:33;94240.34;;;23.07;33.71
56340;BME280;42243;42.644;23.366;2023-05-23T12:09:58;94242.91;;;23.36;34.56
56340;BME280;42243;42.644;23.366;2023-05-23T12:12:23;94155.97;;;22.94;34.21
56340;BME280;42243;42.644;23.366;2023-05-23T12:14:49;94224.63;;;22.63;35.15
56340;BME280;42243;42.644;23.366;2023-05-23T12:17:14;94224.34;;;22.40;36.25
56340;BME280;42243;42.644;23.366;2023-05-23T12:19:44;94155.69;;;21.70;35.91
56340;BME280;42243;42.644;23.366;2023-05-23T12:22:10;94166.75;;;21.77;35.82
56340;BME280;42243;42.644;23.366;2023-05-23T12:24:35;94233.47;;;23.01;35.28
56340;BME280;42243;42.644;23.366;2023-05-23T12:27:09;94224.19;;;22.55;35.79
56340;BME280;42243;42.644;23.366;2023-05-23T12:29:34;94225.16;;;23.32;36.07
56340;BME280;42243;42.644;23.366;2023-05-23T12:32:03;94219.31;;;23.49;35.32
56340;BME280;42243;42.644;23.366;2023-05-23T12:34:28;94097.78;;;23.11;36.06
56340;BME280;42243;42.644;23.366;2023-05-23T12:36:58;94191.88;;;23.86;34.27
56340;BME280;42243;42.644;23.366;2023-05-23T12:39:26;94209.91;;;22.94;34.80
56340;BME280;42243;42.644;23.366;2023-05-23T12:41:52;94194.97;;;22.98;35.01
56340;BME280;42243;42.644;23.366;2023-05-23T12:44:20;94209.81;;;22.80;35.65
56340;BME280;42243;42.644;23.366;2023-05-23T12:46:46;94048.97;;;22.02;35.38
56340;BME280;42243;42.644;23.366;2023-05-23T12:49:12;94201.25;;;23.65;33.24
56340;BME280;42243;42.644;23.366;2023-05-23T12:51:38;94197.22;;;24.19;32.49
56340;BME280;42243;42.644;23.366;2023-05-23T12:54:04;94091.47;;;23.73;31.66
56340;BME280;42243;42.644;23.366;2023-05-23T12:56:29;94193.91;;;24.08;32.38
56340;BME280;42243;42.644;23.366;2023-05-23T12:58:55;94101.66;;;23.52;33.13
56340;BME280;42243;42.644;23.366;2023-05-23T13:01:21;94190.91;;;24.43;32.82
56340;BME280;42243;42.644;23.366;2023-05-23T13:03:46;94187.75;;;23.61;32.99
56340;BME280;42243;42.644;23.366;2023-05-23T13:06:12;94201.66;;;23.72;33.28